createdAt,value
2022-12-06T00:00:54.438Z,3.65
2022-12-06T00:01:54.377Z,3.64
2022-12-06T00:02:54.276Z,3.62
2022-12-06T00:03:54.183Z,3.64
2022-12-06T00:04:54.089Z,3.54
2022-12-06T00:05:54.007Z,3.65
2022-12-06T00:06:53.925Z,3.65
2022-12-06T00:07:53.858Z,3.56
2022-12-06T00:08:53.752Z,3.56
2022-12-06T00:09:53.667Z,3.53
2022-12-06T00:10:53.582Z,3.54
2022-12-06T00:11:53.499Z,3.43
2022-12-06T00:12:53.411Z,3.43
2022-12-06T00:13:53.331Z,3.37
2022-12-06T00:14:53.239Z,3.48
2022-12-06T00:15:53.157Z,3.50
2022-12-06T00:16:53.227Z,3.44
2022-12-06T00:17:52.988Z,3.41
2022-12-06T00:18:52.901Z,3.46
2022-12-06T00:19:52.816Z,3.43
2022-12-06T00:20:52.734Z,3.48
2022-12-06T00:21:52.648Z,3.59
2022-12-06T00:22:52.562Z,3.51
2022-12-06T00:23:52.476Z,3.51
2022-12-06T00:24:52.391Z,3.62
2022-12-06T00:25:52.308Z,3.62
2022-12-06T00:26:52.222Z,3.61
2022-12-06T00:27:52.140Z,3.59
2022-12-06T00:28:52.046Z,3.66
2022-12-06T00:29:51.966Z,3.62
2022-12-06T00:30:51.881Z,3.57
2022-12-06T00:31:51.886Z,3.61
2022-12-06T00:32:51.707Z,3.65
2022-12-06T00:33:51.624Z,3.50
2022-12-06T00:34:51.537Z,3.57
2022-12-06T00:35:51.458Z,3.57
2022-12-06T00:36:51.376Z,3.59
2022-12-06T00:37:51.286Z,3.61
2022-12-06T00:38:51.202Z,3.62
2022-12-06T00:39:51.121Z,3.61
2022-12-06T00:40:51.026Z,3.61
2022-12-06T00:41:50.950Z,3.61
2022-12-06T00:42:50.856Z,3.64
2022-12-06T00:43:50.779Z,3.65
2022-12-06T00:44:50.689Z,3.61
2022-12-06T00:45:50.633Z,3.64
2022-12-06T00:46:50.520Z,3.61
2022-12-06T00:47:50.435Z,3.69
2022-12-06T00:48:50.348Z,3.72
2022-12-06T00:49:50.291Z,3.68
2022-12-06T00:50:50.184Z,3.66
2022-12-06T00:51:50.097Z,3.64
2022-12-06T00:52:50.022Z,3.69
2022-12-06T00:53:49.928Z,3.66
2022-12-06T00:54:49.842Z,3.66
2022-12-06T00:55:49.754Z,3.64
2022-12-06T00:56:49.666Z,3.71
2022-12-06T00:57:49.588Z,3.56
2022-12-06T00:58:49.499Z,3.54
2022-12-06T00:59:49.414Z,3.62
2022-12-06T01:00:49.376Z,3.50
2022-12-06T01:01:49.316Z,3.61
2022-12-06T01:02:49.208Z,3.53
2022-12-06T01:03:49.184Z,3.51
2022-12-06T01:04:48.987Z,3.51
2022-12-06T01:05:48.907Z,3.51
2022-12-06T01:06:48.819Z,3.50
2022-12-06T01:07:48.768Z,3.48
2022-12-06T01:08:48.661Z,3.61
2022-12-06T01:09:48.567Z,3.61
2022-12-06T01:10:48.477Z,3.65
2022-12-06T01:11:48.394Z,3.62
2022-12-06T01:12:48.310Z,3.68
2022-12-06T01:13:48.221Z,3.59
2022-12-06T01:14:48.137Z,3.65
2022-12-06T01:15:48.055Z,3.65
2022-12-06T01:16:48.005Z,3.65
2022-12-06T01:17:47.882Z,3.66
2022-12-06T01:18:47.798Z,3.61
2022-12-06T01:19:47.718Z,3.61
2022-12-06T01:20:47.626Z,3.69
2022-12-06T01:21:47.543Z,3.65
2022-12-06T01:22:47.461Z,3.64
2022-12-06T01:23:47.380Z,3.65
2022-12-06T01:24:47.284Z,3.64
2022-12-06T01:25:47.206Z,3.64
2022-12-06T01:26:47.119Z,3.71
2022-12-06T01:27:47.036Z,3.71
2022-12-06T01:28:46.954Z,3.75
2022-12-06T01:29:46.866Z,3.80
2022-12-06T01:30:46.871Z,3.77
2022-12-06T01:31:46.695Z,3.77
2022-12-06T01:32:46.616Z,3.74
2022-12-06T01:33:46.525Z,3.77
2022-12-06T01:34:46.435Z,3.68
2022-12-06T01:35:46.351Z,3.80
2022-12-06T01:36:46.272Z,3.66
2022-12-06T01:37:46.182Z,3.69
2022-12-06T01:38:46.110Z,3.65
2022-12-06T01:39:46.016Z,3.72
2022-12-06T01:40:45.924Z,3.62
2022-12-06T01:41:45.840Z,3.74
2022-12-06T01:42:45.758Z,3.72
2022-12-06T01:43:45.672Z,3.64
2022-12-06T01:44:45.589Z,3.75
2022-12-06T01:45:45.556Z,3.66
2022-12-06T01:46:45.422Z,3.65
2022-12-06T01:47:45.334Z,3.65
2022-12-06T01:48:45.255Z,3.62
2022-12-06T01:49:45.164Z,3.62
2022-12-06T01:50:45.077Z,3.59
2022-12-06T01:51:44.995Z,3.59
2022-12-06T01:52:44.905Z,3.59
2022-12-06T01:53:44.822Z,3.59
2022-12-06T01:54:44.734Z,3.64
2022-12-06T01:55:44.652Z,3.62
2022-12-06T01:56:44.572Z,3.62
2022-12-06T01:57:44.482Z,3.65
2022-12-06T01:58:44.395Z,3.75
2022-12-06T01:59:44.318Z,3.66
2022-12-06T02:00:44.226Z,3.69
2022-12-06T02:01:44.282Z,3.75
2022-12-06T02:02:44.092Z,3.68
2022-12-06T02:03:43.977Z,3.66
2022-12-06T02:04:43.884Z,3.64
2022-12-06T02:05:43.802Z,3.72
2022-12-06T02:06:43.717Z,3.64
2022-12-06T02:07:43.691Z,3.72
2022-12-06T02:08:43.550Z,3.69
2022-12-06T02:09:43.466Z,3.75
2022-12-06T02:10:43.377Z,3.77
2022-12-06T02:11:43.295Z,3.72
2022-12-06T02:12:43.212Z,3.74
2022-12-06T02:13:43.121Z,3.75
2022-12-06T02:14:43.038Z,3.64
2022-12-06T02:15:42.953Z,3.64
2022-12-06T02:16:42.885Z,3.62
2022-12-06T02:17:42.784Z,3.65
2022-12-06T02:18:42.698Z,3.71
2022-12-06T02:19:42.612Z,3.62
2022-12-06T02:20:42.532Z,3.65
2022-12-06T02:21:42.446Z,3.71
2022-12-06T02:22:42.357Z,3.72
2022-12-06T02:23:42.273Z,3.77
2022-12-06T02:24:42.190Z,3.68
2022-12-06T02:25:43.660Z,3.65
2022-12-06T02:26:42.015Z,3.72
2022-12-06T02:27:41.933Z,3.65
2022-12-06T02:28:41.851Z,3.75
2022-12-06T02:29:41.767Z,3.66
2022-12-06T02:30:41.759Z,3.71
2022-12-06T02:31:41.591Z,3.64
2022-12-06T02:32:41.505Z,3.69
2022-12-06T02:33:41.421Z,3.69
2022-12-06T02:34:41.337Z,3.68
2022-12-06T02:35:41.253Z,3.77
2022-12-06T02:36:41.166Z,3.59
2022-12-06T02:37:41.079Z,3.64
2022-12-06T02:38:40.999Z,3.66
2022-12-06T02:39:40.913Z,3.79
2022-12-06T02:40:40.829Z,3.66
2022-12-06T02:41:40.747Z,3.64
2022-12-06T02:42:40.657Z,3.68
2022-12-06T02:43:40.574Z,3.64
2022-12-06T02:44:40.488Z,3.66
2022-12-06T02:45:40.400Z,3.61
2022-12-06T02:46:40.338Z,3.74
2022-12-06T02:47:40.233Z,3.62
2022-12-06T02:48:40.149Z,3.79
2022-12-06T02:49:40.060Z,3.66
2022-12-06T02:50:39.977Z,3.69
2022-12-06T02:51:39.890Z,3.69
2022-12-06T02:52:39.804Z,3.72
2022-12-06T02:53:39.722Z,3.74
2022-12-06T02:54:39.635Z,3.68
2022-12-06T02:55:39.553Z,3.69
2022-12-06T02:56:39.473Z,3.65
2022-12-06T02:57:39.380Z,3.74
2022-12-06T02:58:39.292Z,3.72
2022-12-06T02:59:39.214Z,3.82
2022-12-06T03:00:39.127Z,3.77
2022-12-06T03:01:39.077Z,3.77
2022-12-06T03:02:38.991Z,3.68
2022-12-06T03:03:38.873Z,3.74
2022-12-06T03:04:38.787Z,3.77
2022-12-06T03:05:38.704Z,3.82
2022-12-06T03:06:38.617Z,3.72
2022-12-06T03:07:38.569Z,3.79
2022-12-06T03:08:38.446Z,3.74
2022-12-06T03:09:38.364Z,3.80
2022-12-06T03:10:38.274Z,3.83
2022-12-06T03:11:38.197Z,3.75
2022-12-06T03:12:38.110Z,3.74
2022-12-06T03:13:38.023Z,3.72
2022-12-06T03:14:37.937Z,3.74
2022-12-06T03:15:37.899Z,3.79
2022-12-06T03:16:37.768Z,3.75
2022-12-06T03:17:37.722Z,3.83
2022-12-06T03:18:37.602Z,3.82
2022-12-06T03:19:37.511Z,3.75
2022-12-06T03:20:37.432Z,3.77
2022-12-06T03:21:37.340Z,3.83
2022-12-06T03:22:40.047Z,3.75
2022-12-06T03:23:37.173Z,3.82
2022-12-06T03:24:37.083Z,3.87
2022-12-06T03:25:37.004Z,3.86
2022-12-06T03:26:36.918Z,3.80
2022-12-06T03:27:36.839Z,3.82
2022-12-06T03:28:36.744Z,3.82
2022-12-06T03:29:36.660Z,3.86
2022-12-06T03:30:36.597Z,3.87
2022-12-06T03:31:36.602Z,3.82
2022-12-06T03:32:36.416Z,3.86
2022-12-06T03:33:36.330Z,3.79
2022-12-06T03:34:36.239Z,3.84
2022-12-06T03:35:36.155Z,3.87
2022-12-06T03:36:36.064Z,3.79
2022-12-06T03:37:35.982Z,3.82
2022-12-06T03:38:35.901Z,3.90
2022-12-06T03:39:35.811Z,3.86
2022-12-06T03:40:35.727Z,3.89
2022-12-06T03:41:35.642Z,3.87
2022-12-06T03:42:35.554Z,3.90
2022-12-06T03:43:35.477Z,3.90
2022-12-06T03:44:35.386Z,3.93
2022-12-06T03:45:35.443Z,3.90
2022-12-06T03:46:35.297Z,3.93
2022-12-06T03:47:35.132Z,3.87
2022-12-06T03:48:35.054Z,3.82
2022-12-06T03:49:34.963Z,3.90
2022-12-06T03:50:34.875Z,3.93
2022-12-06T03:51:34.807Z,3.86
2022-12-06T03:52:34.707Z,4.00
2022-12-06T03:53:34.634Z,3.89
2022-12-06T03:54:34.537Z,3.90
2022-12-06T03:55:34.522Z,3.93
2022-12-06T03:56:34.366Z,3.98
2022-12-06T03:57:34.282Z,3.97
2022-12-06T03:58:34.197Z,3.97
2022-12-06T03:59:34.112Z,3.98
2022-12-06T04:00:34.023Z,3.97
2022-12-06T04:01:34.059Z,4.00
2022-12-06T04:02:33.858Z,3.97
2022-12-06T04:03:33.829Z,4.01
2022-12-06T04:04:33.689Z,4.02
2022-12-06T04:05:33.603Z,4.01
2022-12-06T04:06:33.517Z,3.98
2022-12-06T04:07:33.499Z,4.04
2022-12-06T04:08:33.367Z,4.07
2022-12-06T04:09:33.261Z,4.02
2022-12-06T04:10:33.184Z,4.05
2022-12-06T04:11:33.098Z,4.10
2022-12-06T04:12:33.010Z,4.11
2022-12-06T04:13:32.919Z,4.01
2022-12-06T04:14:32.844Z,4.05
2022-12-06T04:15:32.760Z,4.02
2022-12-06T04:16:32.700Z,3.92
2022-12-06T04:17:32.585Z,4.05
2022-12-06T04:18:32.497Z,4.07
2022-12-06T04:19:32.410Z,3.93
2022-12-06T04:20:32.328Z,3.90
2022-12-06T04:21:32.242Z,4.02
2022-12-06T04:22:32.161Z,4.01
2022-12-06T04:23:32.084Z,4.05
2022-12-06T04:24:31.987Z,4.01
2022-12-06T04:25:31.904Z,4.00
2022-12-06T04:26:31.823Z,3.98
2022-12-06T04:27:31.732Z,4.00
2022-12-06T04:28:31.650Z,4.04
2022-12-06T04:29:31.563Z,4.04
2022-12-06T04:30:31.480Z,4.04
2022-12-06T04:31:31.438Z,4.00
2022-12-06T04:32:31.312Z,4.01
2022-12-06T04:33:31.229Z,4.01
2022-12-06T04:34:31.141Z,4.04
2022-12-06T04:35:31.054Z,4.05
2022-12-06T04:36:30.975Z,4.05
2022-12-06T04:37:30.886Z,4.04
2022-12-06T04:38:30.798Z,4.04
2022-12-06T04:39:30.716Z,4.08
2022-12-06T04:40:30.632Z,4.01
2022-12-06T04:41:30.542Z,4.01
2022-12-06T04:42:30.459Z,4.02
2022-12-06T04:43:30.375Z,4.08
2022-12-06T04:44:30.290Z,4.10
2022-12-06T04:45:30.205Z,4.16
2022-12-06T04:46:30.193Z,4.05
2022-12-06T04:47:30.038Z,4.07
2022-12-06T04:48:29.951Z,4.07
2022-12-06T04:49:29.861Z,4.12
2022-12-06T04:50:29.782Z,4.12
2022-12-06T04:51:29.695Z,4.11
2022-12-06T04:52:35.201Z,4.08
2022-12-06T04:53:29.525Z,4.08
2022-12-06T04:54:29.442Z,4.07
2022-12-06T04:55:29.360Z,4.07
2022-12-06T04:56:29.267Z,4.05
2022-12-06T04:57:29.184Z,4.04
2022-12-06T04:58:29.103Z,4.05
2022-12-06T04:59:29.023Z,4.05
2022-12-06T05:00:28.967Z,4.04
2022-12-06T05:01:28.873Z,4.04
2022-12-06T05:02:28.761Z,4.05
2022-12-06T05:03:28.728Z,4.07
2022-12-06T05:04:28.673Z,4.00
2022-12-06T05:05:28.504Z,4.05
2022-12-06T05:06:28.422Z,4.07
2022-12-06T05:07:28.340Z,4.05
2022-12-06T05:08:28.250Z,4.01
2022-12-06T05:09:28.164Z,4.07
2022-12-06T05:10:28.082Z,4.00
2022-12-06T05:11:27.998Z,4.07
2022-12-06T05:12:27.912Z,4.02
2022-12-06T05:13:27.829Z,4.04
2022-12-06T05:14:27.739Z,4.05
2022-12-06T05:15:29.271Z,4.07
2022-12-06T05:16:27.611Z,4.10
2022-12-06T05:17:27.486Z,4.07
2022-12-06T05:18:27.400Z,4.07
2022-12-06T05:19:27.324Z,4.05
2022-12-06T05:20:27.232Z,4.04
2022-12-06T05:21:27.144Z,4.00
2022-12-06T05:22:27.064Z,4.02
2022-12-06T05:23:26.976Z,3.94
2022-12-06T05:24:26.909Z,4.00
2022-12-06T05:25:26.805Z,4.00
2022-12-06T05:26:26.727Z,4.10
2022-12-06T05:27:28.662Z,4.02
2022-12-06T05:28:26.548Z,4.04
2022-12-06T05:29:26.470Z,4.01
2022-12-06T05:30:26.387Z,3.98
2022-12-06T05:31:26.329Z,4.02
2022-12-06T05:32:26.210Z,4.12
2022-12-06T05:33:26.124Z,4.04
2022-12-06T05:34:26.041Z,4.04
2022-12-06T05:35:25.959Z,4.05
2022-12-06T05:36:25.872Z,4.12
2022-12-06T05:37:25.807Z,4.18
2022-12-06T05:38:25.705Z,4.11
2022-12-06T05:39:25.617Z,4.05
2022-12-06T05:40:25.537Z,4.15
2022-12-06T05:41:25.444Z,4.18
2022-12-06T05:42:25.363Z,4.12
2022-12-06T05:43:25.275Z,4.15
2022-12-06T05:44:25.195Z,4.15
2022-12-06T05:45:25.113Z,4.15
2022-12-06T05:46:25.087Z,4.18
2022-12-06T05:47:24.938Z,4.10
2022-12-06T05:48:24.852Z,4.10
2022-12-06T05:49:24.763Z,4.10
2022-12-06T05:50:24.682Z,4.12
2022-12-06T05:51:24.598Z,4.12
2022-12-06T05:52:24.509Z,4.11
2022-12-06T05:53:24.428Z,4.11
2022-12-06T05:54:24.341Z,4.12
2022-12-06T05:55:24.256Z,4.11
2022-12-06T05:56:24.177Z,4.11
2022-12-06T05:57:24.088Z,4.12
2022-12-06T05:58:24.004Z,4.02
2022-12-06T05:59:23.918Z,4.08
2022-12-06T06:00:23.839Z,4.12
2022-12-06T06:01:23.748Z,4.07
2022-12-06T06:02:23.724Z,4.12
2022-12-06T06:03:23.621Z,4.11
2022-12-06T06:04:23.492Z,4.15
2022-12-06T06:05:23.406Z,4.10
2022-12-06T06:06:23.327Z,4.20
2022-12-06T06:07:23.241Z,4.04
2022-12-06T06:08:23.194Z,4.11
2022-12-06T06:09:23.069Z,4.10
2022-12-06T06:10:22.985Z,4.11
2022-12-06T06:11:22.896Z,4.08
2022-12-06T06:12:22.820Z,4.11
2022-12-06T06:13:22.729Z,4.10
2022-12-06T06:14:22.645Z,4.00
2022-12-06T06:15:22.558Z,4.07
2022-12-06T06:16:22.583Z,4.12
2022-12-06T06:17:22.391Z,4.15
2022-12-06T06:18:22.307Z,4.11
2022-12-06T06:19:22.220Z,4.11
2022-12-06T06:20:22.134Z,4.16
2022-12-06T06:21:22.052Z,4.08
2022-12-06T06:22:21.967Z,4.11
2022-12-06T06:23:21.883Z,4.16
2022-12-06T06:24:21.794Z,4.11
2022-12-06T06:25:21.710Z,4.16
2022-12-06T06:26:21.628Z,4.11
2022-12-06T06:27:21.544Z,4.07
2022-12-06T06:28:21.463Z,4.02
2022-12-06T06:29:21.373Z,4.05
2022-12-06T06:30:21.397Z,4.15
2022-12-06T06:31:21.244Z,4.05
2022-12-06T06:32:21.117Z,4.04
2022-12-06T06:33:21.041Z,4.10
2022-12-06T06:34:20.946Z,4.04
2022-12-06T06:35:20.866Z,4.02
2022-12-06T06:36:20.777Z,4.01
2022-12-06T06:37:20.692Z,4.07
2022-12-06T06:38:20.610Z,4.11
2022-12-06T06:39:20.521Z,4.05
2022-12-06T06:40:20.442Z,4.12
2022-12-06T06:41:20.358Z,4.08
2022-12-06T06:42:20.271Z,4.01
2022-12-06T06:43:20.300Z,4.01
2022-12-06T06:44:20.099Z,4.02
2022-12-06T06:45:25.183Z,4.05
2022-12-06T06:46:19.991Z,4.00
2022-12-06T06:47:19.843Z,4.00
2022-12-06T06:48:19.760Z,3.94
2022-12-06T06:49:19.674Z,3.98
2022-12-06T06:50:19.592Z,3.86
2022-12-06T06:51:19.526Z,3.90
2022-12-06T06:52:19.423Z,3.92
2022-12-06T06:53:19.343Z,3.93
2022-12-06T06:54:19.255Z,3.94
2022-12-06T06:55:19.169Z,3.84
2022-12-06T06:56:19.082Z,4.00
2022-12-06T06:57:18.995Z,3.86
2022-12-06T06:58:18.915Z,3.86
2022-12-06T06:59:18.827Z,4.00
2022-12-06T07:00:18.746Z,4.02
2022-12-06T07:01:18.838Z,3.84
2022-12-06T07:02:18.594Z,4.01
2022-12-06T07:03:18.490Z,4.04
2022-12-06T07:04:18.404Z,4.01
2022-12-06T07:05:18.320Z,4.10
2022-12-06T07:06:18.235Z,4.04
2022-12-06T07:07:21.203Z,4.11
2022-12-06T07:08:18.119Z,4.10
2022-12-06T07:09:17.987Z,4.04
2022-12-06T07:10:17.894Z,4.10
2022-12-06T07:11:17.815Z,4.15
2022-12-06T07:12:17.729Z,4.19
2022-12-06T07:13:17.641Z,4.11
2022-12-06T07:14:17.559Z,4.15
2022-12-06T07:15:17.481Z,4.12
2022-12-06T07:16:17.438Z,4.12
2022-12-06T07:17:17.353Z,4.22
2022-12-06T07:18:17.218Z,4.16
2022-12-06T07:19:17.135Z,4.16
2022-12-06T07:20:17.046Z,4.15
2022-12-06T07:21:16.965Z,4.20
2022-12-06T07:22:16.881Z,4.16
2022-12-06T07:23:16.792Z,4.22
2022-12-06T07:24:16.708Z,4.26
2022-12-06T07:25:16.622Z,4.22
2022-12-06T07:26:16.541Z,4.23
2022-12-06T07:27:16.451Z,4.32
2022-12-06T07:28:16.372Z,4.28
2022-12-06T07:29:16.298Z,4.28
2022-12-06T07:30:17.394Z,4.22
2022-12-06T07:31:16.270Z,4.22
2022-12-06T07:32:16.039Z,4.20
2022-12-06T07:33:15.945Z,4.32
2022-12-06T07:34:15.864Z,4.29
2022-12-06T07:35:15.778Z,4.29
2022-12-06T07:36:15.692Z,4.28
2022-12-06T07:37:15.603Z,4.29
2022-12-06T07:38:15.544Z,4.30
2022-12-06T07:39:15.434Z,4.34
2022-12-06T07:40:15.353Z,4.37
2022-12-06T07:41:15.265Z,4.30
2022-12-06T07:42:15.180Z,4.36
2022-12-06T07:43:15.200Z,4.37
2022-12-06T07:44:15.016Z,4.36
2022-12-06T07:45:14.927Z,4.32
2022-12-06T07:46:14.914Z,4.38
2022-12-06T07:47:14.755Z,4.36
2022-12-06T07:48:14.753Z,4.41
2022-12-06T07:49:14.590Z,4.40
2022-12-06T07:50:17.965Z,4.36
2022-12-06T07:51:14.422Z,4.43
2022-12-06T07:52:14.336Z,4.48
2022-12-06T07:53:14.248Z,4.40
2022-12-06T07:54:14.164Z,4.44
2022-12-06T07:55:14.085Z,4.38
2022-12-06T07:56:13.996Z,4.43
2022-12-06T07:57:13.911Z,4.44
2022-12-06T07:58:13.835Z,4.50
2022-12-06T07:59:13.741Z,4.47
2022-12-06T08:00:13.659Z,4.37
2022-12-06T08:01:13.637Z,4.47
2022-12-06T08:02:13.487Z,4.44
2022-12-06T08:03:13.404Z,4.44
2022-12-06T08:04:13.394Z,4.43
2022-12-06T08:05:13.233Z,4.44
2022-12-06T08:06:13.148Z,4.54
2022-12-06T08:07:13.060Z,4.38
2022-12-06T08:08:13.007Z,4.47
2022-12-06T08:09:12.891Z,4.46
2022-12-06T08:10:12.810Z,4.48
2022-12-06T08:11:12.725Z,4.50
2022-12-06T08:12:12.639Z,4.48
2022-12-06T08:13:12.552Z,4.47
2022-12-06T08:14:12.477Z,4.48
2022-12-06T08:15:12.387Z,4.56
2022-12-06T08:16:12.388Z,4.54
2022-12-06T08:17:12.219Z,4.55
2022-12-06T08:18:12.128Z,4.56
2022-12-06T08:19:12.049Z,4.59
2022-12-06T08:20:11.968Z,4.55
2022-12-06T08:21:11.880Z,4.52
2022-12-06T08:22:11.792Z,4.48
2022-12-06T08:23:11.706Z,4.54
2022-12-06T08:24:11.625Z,4.59
2022-12-06T08:25:11.537Z,4.59
2022-12-06T08:26:11.452Z,4.55
2022-12-06T08:27:11.372Z,4.55
2022-12-06T08:28:11.284Z,4.61
2022-12-06T08:29:11.199Z,4.61
2022-12-06T08:30:11.114Z,4.65
2022-12-06T08:31:11.105Z,4.66
2022-12-06T08:32:10.947Z,4.58
2022-12-06T08:33:10.864Z,4.64
2022-12-06T08:34:10.782Z,4.61
2022-12-06T08:35:10.699Z,4.62
2022-12-06T08:36:10.608Z,4.55
2022-12-06T08:37:10.523Z,4.62
2022-12-06T08:38:10.438Z,4.54
2022-12-06T08:39:10.357Z,4.61
2022-12-06T08:40:10.264Z,4.73
2022-12-06T08:41:10.186Z,4.65
2022-12-06T08:42:10.102Z,4.69
2022-12-06T08:43:10.026Z,4.66
2022-12-06T08:44:09.929Z,4.73
2022-12-06T08:45:09.846Z,4.72
2022-12-06T08:46:09.804Z,4.74
2022-12-06T08:47:09.674Z,4.73
2022-12-06T08:48:09.592Z,4.73
2022-12-06T08:49:09.510Z,4.83
2022-12-06T08:50:09.419Z,4.68
2022-12-06T08:51:09.342Z,4.74
2022-12-06T08:52:09.258Z,4.69
2022-12-06T08:53:09.170Z,4.76
2022-12-06T08:54:09.081Z,4.68
2022-12-06T08:55:09.000Z,4.66
2022-12-06T08:56:08.916Z,4.69
2022-12-06T08:57:08.830Z,4.76
2022-12-06T08:58:08.745Z,4.76
2022-12-06T08:59:08.661Z,4.73
2022-12-06T09:00:08.571Z,4.65
2022-12-06T09:01:08.541Z,4.68
2022-12-06T09:02:08.430Z,4.64
2022-12-06T09:03:08.327Z,4.69
2022-12-06T09:04:08.361Z,4.64
2022-12-06T09:05:08.201Z,4.69
2022-12-06T09:06:08.068Z,4.69
2022-12-06T09:07:11.646Z,4.66
2022-12-06T09:08:08.010Z,4.74
2022-12-06T09:09:07.814Z,4.74
2022-12-06T09:10:07.725Z,4.79
2022-12-06T09:11:07.653Z,4.76
2022-12-06T09:12:07.555Z,4.72
2022-12-06T09:13:07.481Z,4.72
2022-12-06T09:14:07.419Z,4.79
2022-12-06T09:15:07.308Z,4.76
2022-12-06T09:16:07.328Z,4.77
2022-12-06T09:17:07.137Z,4.69
2022-12-06T09:18:07.054Z,4.74
2022-12-06T09:19:06.967Z,4.76
2022-12-06T09:20:06.944Z,4.69
2022-12-06T09:21:06.799Z,4.73
2022-12-06T09:22:06.713Z,4.72
2022-12-06T09:23:06.630Z,4.65
2022-12-06T09:24:06.549Z,4.65
2022-12-06T09:25:06.461Z,4.69
2022-12-06T09:26:06.373Z,4.65
2022-12-06T09:27:06.291Z,4.61
2022-12-06T09:28:06.201Z,4.73
2022-12-06T09:29:06.118Z,4.76
2022-12-06T09:30:06.041Z,4.76
2022-12-06T09:31:06.049Z,4.74
2022-12-06T09:32:05.865Z,4.85
2022-12-06T09:33:05.799Z,4.85
2022-12-06T09:34:05.700Z,4.83
2022-12-06T09:35:06.434Z,4.80
2022-12-06T09:36:05.545Z,4.76
2022-12-06T09:37:05.447Z,4.77
2022-12-06T09:38:05.360Z,4.72
2022-12-06T09:39:05.275Z,4.72
2022-12-06T09:40:05.210Z,4.72
2022-12-06T09:41:05.107Z,4.69
2022-12-06T09:42:05.024Z,4.68
2022-12-06T09:43:04.936Z,4.72
2022-12-06T09:44:04.851Z,4.66
2022-12-06T09:45:04.765Z,4.76
2022-12-06T09:46:04.735Z,4.77
2022-12-06T09:47:04.601Z,4.76
2022-12-06T09:48:04.512Z,4.74
2022-12-06T09:49:04.441Z,4.76
2022-12-06T09:50:04.343Z,4.83
2022-12-06T09:51:04.264Z,4.84
2022-12-06T09:52:04.173Z,4.80
2022-12-06T09:53:04.089Z,4.88
2022-12-06T09:54:04.006Z,4.85
2022-12-06T09:55:03.925Z,4.87
2022-12-06T09:56:03.845Z,4.77
2022-12-06T09:57:03.751Z,4.84
2022-12-06T09:58:03.668Z,4.91
2022-12-06T09:59:03.587Z,4.83
2022-12-06T10:00:07.283Z,4.87
2022-12-06T10:01:03.420Z,4.91
2022-12-06T10:02:03.384Z,4.95
2022-12-06T10:03:03.300Z,4.80
2022-12-06T10:04:03.162Z,4.93
2022-12-06T10:05:03.080Z,4.93
2022-12-06T10:06:03.009Z,4.91
2022-12-06T10:07:02.934Z,4.87
2022-12-06T10:08:02.922Z,4.98
2022-12-06T10:09:02.870Z,4.95
2022-12-06T10:10:03.015Z,4.95
2022-12-06T10:11:08.285Z,4.96
2022-12-06T10:12:02.509Z,4.88
2022-12-06T10:13:02.397Z,4.87
2022-12-06T10:14:02.316Z,4.95
2022-12-06T10:15:02.232Z,4.95
2022-12-06T10:16:02.200Z,5.00
2022-12-06T10:17:02.061Z,5.03
2022-12-06T10:18:01.979Z,5.03
2022-12-06T10:19:01.893Z,4.98
2022-12-06T10:20:02.183Z,4.96
2022-12-06T10:21:01.728Z,5.06
2022-12-06T10:22:01.643Z,5.08
2022-12-06T10:23:01.560Z,4.95
2022-12-06T10:24:02.285Z,5.03
2022-12-06T10:25:01.386Z,4.95
2022-12-06T10:26:01.302Z,5.03
2022-12-06T10:27:01.216Z,5.05
2022-12-06T10:28:01.131Z,4.98
2022-12-06T10:29:01.050Z,5.10
2022-12-06T10:30:01.487Z,5.08
2022-12-06T10:31:00.966Z,5.06
2022-12-06T10:32:00.791Z,5.06
2022-12-06T10:33:00.716Z,5.02
2022-12-06T10:34:00.626Z,5.11
2022-12-06T10:35:00.541Z,5.11
2022-12-06T10:36:00.455Z,5.02
2022-12-06T10:37:00.375Z,5.02
2022-12-06T10:38:00.288Z,5.08
2022-12-06T10:39:00.206Z,5.05
2022-12-06T10:40:00.125Z,5.13
2022-12-06T10:41:00.037Z,4.95
2022-12-06T10:41:59.950Z,5.05
2022-12-06T10:42:59.868Z,5.10
2022-12-06T10:43:59.779Z,5.06
2022-12-06T10:44:59.697Z,5.13
2022-12-06T10:46:02.090Z,5.02
2022-12-06T10:46:59.594Z,5.06
2022-12-06T10:47:59.444Z,5.14
2022-12-06T10:48:59.362Z,5.02
2022-12-06T10:49:59.689Z,5.11
2022-12-06T10:50:59.193Z,5.08
2022-12-06T10:51:59.108Z,5.14
2022-12-06T10:53:01.978Z,5.10
2022-12-06T10:53:58.934Z,5.10
2022-12-06T10:54:58.851Z,5.10
2022-12-06T10:55:58.769Z,5.13
2022-12-06T10:56:58.683Z,5.13
2022-12-06T10:57:58.598Z,5.16
2022-12-06T10:58:58.519Z,5.10
2022-12-06T11:00:03.060Z,5.10
2022-12-06T11:00:58.396Z,5.17
2022-12-06T11:01:58.335Z,5.08
2022-12-06T11:02:58.178Z,5.21
2022-12-06T11:03:58.095Z,5.17
2022-12-06T11:04:58.011Z,5.24
2022-12-06T11:05:57.928Z,5.14
2022-12-06T11:06:57.840Z,5.29
2022-12-06T11:07:57.795Z,5.23
2022-12-06T11:08:57.669Z,5.24
2022-12-06T11:09:57.760Z,5.26
2022-12-06T11:10:57.507Z,5.32
2022-12-06T11:11:57.415Z,5.26
2022-12-06T11:12:57.335Z,5.29
2022-12-06T11:13:57.249Z,5.29
2022-12-06T11:14:57.165Z,5.28
2022-12-06T11:15:57.153Z,5.29
2022-12-06T11:16:56.994Z,5.21
2022-12-06T11:18:02.197Z,5.26
2022-12-06T11:18:56.831Z,5.32
2022-12-06T11:19:56.745Z,5.24
2022-12-06T11:20:56.657Z,5.31
2022-12-06T11:21:56.574Z,5.28
2022-12-06T11:22:56.493Z,5.29
2022-12-06T11:23:56.406Z,5.29
2022-12-06T11:24:56.320Z,5.32
2022-12-06T11:25:56.236Z,5.29
2022-12-06T11:26:56.159Z,5.28
2022-12-06T11:27:56.065Z,5.31
2022-12-06T11:28:55.985Z,5.26
2022-12-06T11:29:55.896Z,5.26
2022-12-06T11:30:55.815Z,5.24
2022-12-06T11:31:55.901Z,5.32
2022-12-06T11:32:55.665Z,5.28
2022-12-06T11:33:55.580Z,5.29
2022-12-06T11:34:55.476Z,5.34
2022-12-06T11:35:55.392Z,5.36
2022-12-06T11:36:59.825Z,5.28
2022-12-06T11:37:55.229Z,5.26
2022-12-06T11:38:55.140Z,5.29
2022-12-06T11:39:55.056Z,5.32
2022-12-06T11:40:54.972Z,5.24
2022-12-06T11:41:54.890Z,5.17
2022-12-06T11:42:54.806Z,5.26
2022-12-06T11:43:54.721Z,5.26
2022-12-06T11:44:54.638Z,5.26
2022-12-06T11:45:54.549Z,5.29
2022-12-06T11:46:54.526Z,5.28
2022-12-06T11:47:54.384Z,5.31
2022-12-06T11:48:54.304Z,5.31
2022-12-06T11:49:54.212Z,5.24
2022-12-06T11:50:54.134Z,5.31
2022-12-06T11:51:54.048Z,5.24
2022-12-06T11:52:53.960Z,5.31
2022-12-06T11:53:53.879Z,5.34
2022-12-06T11:54:53.798Z,5.38
2022-12-06T11:55:53.709Z,5.29
2022-12-06T11:56:53.623Z,5.26
2022-12-06T11:57:53.541Z,5.29
2022-12-06T11:58:53.457Z,5.31
2022-12-06T11:59:53.370Z,5.34
2022-12-06T12:00:53.284Z,5.45
2022-12-06T12:01:53.203Z,5.36
2022-12-06T12:02:53.219Z,5.34
2022-12-06T12:03:53.033Z,5.41
2022-12-06T12:04:52.952Z,5.34
2022-12-06T12:05:52.867Z,5.36
2022-12-06T12:06:52.788Z,5.35
2022-12-06T12:07:52.850Z,5.42
2022-12-06T12:08:52.613Z,5.45
2022-12-06T12:09:52.531Z,5.41
2022-12-06T12:10:52.444Z,5.47
2022-12-06T12:11:52.360Z,5.34
2022-12-06T12:12:52.278Z,5.42
2022-12-06T12:13:52.194Z,5.31
2022-12-06T12:14:52.106Z,5.45
2022-12-06T12:15:52.024Z,5.44
2022-12-06T12:16:51.980Z,5.44
2022-12-06T12:17:51.855Z,5.42
2022-12-06T12:18:51.772Z,5.42
2022-12-06T12:19:51.693Z,5.36
2022-12-06T12:20:51.603Z,5.42
2022-12-06T12:21:54.382Z,5.34
2022-12-06T12:22:51.441Z,5.39
2022-12-06T12:23:51.350Z,5.34
2022-12-06T12:25:19.929Z,5.36
2022-12-06T12:25:51.179Z,5.32
2022-12-06T12:26:51.102Z,5.35
2022-12-06T12:27:51.012Z,5.36
2022-12-06T12:28:50.927Z,5.38
2022-12-06T12:29:50.841Z,5.41
2022-12-06T12:30:50.760Z,5.35
2022-12-06T12:31:50.706Z,5.39
2022-12-06T12:32:50.593Z,5.36
2022-12-06T12:33:50.510Z,5.34
2022-12-06T12:34:50.421Z,5.29
2022-12-06T12:35:50.340Z,5.28
2022-12-06T12:36:50.257Z,5.24
2022-12-06T12:37:50.170Z,5.34
2022-12-06T12:38:50.084Z,5.32
2022-12-06T12:39:50.008Z,5.32
2022-12-06T12:40:49.917Z,5.28
2022-12-06T12:41:49.835Z,5.32
2022-12-06T12:42:49.755Z,5.28
2022-12-06T12:44:02.250Z,5.32
2022-12-06T12:44:49.584Z,5.32
2022-12-06T12:45:49.529Z,5.32
2022-12-06T12:46:49.417Z,5.35
2022-12-06T12:47:49.330Z,5.32
2022-12-06T12:48:49.252Z,5.35
2022-12-06T12:49:49.160Z,5.36
2022-12-06T12:50:49.077Z,5.35
2022-12-06T12:51:48.995Z,5.23
2022-12-06T12:52:48.920Z,5.32
2022-12-06T12:53:48.823Z,5.31
2022-12-06T12:54:48.736Z,5.32
2022-12-06T12:55:48.657Z,5.36
2022-12-06T12:56:48.569Z,5.31
2022-12-06T12:57:48.490Z,5.26
2022-12-06T12:58:48.402Z,5.29
2022-12-06T12:59:48.325Z,5.35
2022-12-06T13:00:48.378Z,5.32
2022-12-06T13:01:48.266Z,5.32
2022-12-06T13:02:48.144Z,5.31
2022-12-06T13:03:51.742Z,5.32
2022-12-06T13:04:50.798Z,5.32
2022-12-06T13:05:48.105Z,5.23
2022-12-06T13:06:47.726Z,5.13
2022-12-06T13:07:47.691Z,5.21
2022-12-06T13:08:47.562Z,5.21
2022-12-06T13:09:47.476Z,5.23
2022-12-06T13:10:47.392Z,5.20
2022-12-06T13:11:47.311Z,5.20
2022-12-06T13:12:47.227Z,5.21
2022-12-06T13:13:47.141Z,5.18
2022-12-06T13:14:47.051Z,5.18
2022-12-06T13:15:46.967Z,5.17
2022-12-06T13:16:46.959Z,5.17
2022-12-06T13:17:46.802Z,5.16